Time,TemperatureF,DewpointF,PressureIn,WindDirection,WindDirectionDegrees,WindSpeedMPH,WindSpeedGustMPH,Humidity,HourlyPrecipIn,Conditions,Clouds,dailyrainin,SoftwareType,DateUTC
2015-04-25 00:00:00,56.2,52.0,29.96,WSW,248,1.8,4.5,86,0.02,,,0.00,WUHU216HW,2015-04-25 07:00:00,
2015-04-25 00:05:00,56.0,51.9,29.96,WSW,248,0.2,4.0,86,0.03,,,0.01,WUHU216HW,2015-04-25 07:05:00,
2015-04-25 00:10:00,56.0,51.9,29.96,SW,225,2.7,3.8,86,0.03,,,0.01,WUHU216HW,2015-04-25 07:10:00,
2015-04-25 00:15:00,56.0,51.9,29.96,WSW,248,2.0,3.4,86,0.03,,,0.01,WUHU216HW,2015-04-25 07:15:00,
2015-04-25 00:20:00,56.0,51.9,29.95,WSW,248,1.1,3.1,86,0.02,,,0.01,WUHU216HW,2015-04-25 07:20:00,
2015-04-25 00:25:00,56.0,52.1,29.95,WSW,248,1.6,3.1,87,0.03,,,0.02,WUHU216HW,2015-04-25 07:25:00,
2015-04-25 00:30:00,56.0,52.1,29.95,WSW,248,1.8,3.6,87,0.03,,,0.02,WUHU216HW,2015-04-25 07:30:00,
2015-04-25 00:35:00,56.0,52.1,29.95,WSW,248,0.9,3.6,87,0.04,,,0.03,WUHU216HW,2015-04-25 07:35:00,
2015-04-25 00:40:00,56.0,52.5,29.95,SSE,158,0.7,2.5,88,0.04,,,0.03,WUHU216HW,2015-04-25 07:40:00,
2015-04-25 00:45:00,56.0,52.5,29.95,SW,225,0.7,3.1,88,0.04,,,0.03,WUHU216HW,2015-04-25 07:45:00,
2015-04-25 00:50:00,56.2,52.7,29.94,WSW,248,1.3,4.7,88,0.04,,,0.03,WUHU216HW,2015-04-25 07:50:00,
2015-04-25 00:55:00,56.2,52.7,29.94,SW,225,0.2,4.7,88,0.04,,,0.04,WUHU216HW,2015-04-25 07:55:00,
2015-04-25 01:00:00,56.3,52.8,29.94,WSW,248,0.9,4.7,88,0.04,,,0.05,WUHU216HW,2015-04-25 08:00:00,
2015-04-25 01:05:00,56.3,52.8,29.94,WSW,248,2.5,3.4,88,0.05,,,0.06,WUHU216HW,2015-04-25 08:05:00,
2015-04-25 01:10:00,56.3,52.8,29.94,West,270,0.4,3.6,88,0.06,,,0.08,WUHU216HW,2015-04-25 08:10:00,
2015-04-25 01:15:00,56.3,53.1,29.93,WSW,248,0.7,4.9,89,0.07,,,0.08,WUHU216HW,2015-04-25 08:15:00,
2015-04-25 01:20:00,56.3,53.1,29.93,SSW,203,3.4,4.9,89,0.07,,,0.10,WUHU216HW,2015-04-25 08:20:00,
2015-04-25 01:25:00,56.3,53.1,29.93,SW,225,1.1,3.4,89,0.08,,,0.10,WUHU216HW,2015-04-25 08:25:00,
2015-04-25 01:30:00,56.3,53.1,29.93,SW,225,1.3,3.8,89,0.08,,,0.10,WUHU216HW,2015-04-25 08:30:00,
2015-04-25 01:35:00,56.3,53.1,29.93,WSW,248,2.5,4.9,89,0.09,,,0.12,WUHU216HW,2015-04-25 08:35:00,
2015-04-25 01:40:00,56.3,53.1,29.92,WSW,248,2.5,4.9,89,0.10,,,0.13,WUHU216HW,2015-04-25 08:40:00,
2015-04-25 01:45:00,56.3,53.1,29.92,WSW,248,1.1,4.7,89,0.11,,,0.15,WUHU216HW,2015-04-25 08:45:00,
2015-04-25 01:50:00,56.5,53.3,29.92,WSW,248,0.7,4.0,89,0.11,,,0.15,WUHU216HW,2015-04-25 08:50:00,
2015-04-25 01:55:00,56.5,53.3,29.91,WSW,248,3.4,4.7,89,0.12,,,0.17,WUHU216HW,2015-04-25 08:55:00,
2015-04-25 02:00:00,56.5,53.3,29.91,WSW,248,1.6,6.5,89,0.12,,,0.17,WUHU216HW,2015-04-25 09:00:00,
2015-04-25 02:05:00,56.5,53.3,29.91,West,270,4.7,6.5,89,0.10,,,0.17,WUHU216HW,2015-04-25 09:05:00,
2015-04-25 02:10:00,56.5,53.3,29.91,WSW,248,2.9,4.7,89,0.13,,,0.20,WUHU216HW,2015-04-25 09:10:00,
2015-04-25 02:15:00,56.5,53.3,29.91,WSW,248,1.6,4.7,89,0.13,,,0.22,WUHU216HW,2015-04-25 09:15:00,
2015-04-25 02:20:00,56.5,53.6,29.91,WSW,248,1.8,3.1,90,0.12,,,0.23,WUHU216HW,2015-04-25 09:20:00,
2015-04-25 02:25:00,56.5,53.6,29.91,WSW,248,2.7,3.4,90,0.12,,,0.23,WUHU216HW,2015-04-25 09:25:00,
2015-04-25 02:30:00,56.5,53.6,29.91,West,270,1.1,3.4,90,0.12,,,0.24,WUHU216HW,2015-04-25 09:30:00,
2015-04-25 02:35:00,56.5,53.6,29.91,WSW,248,2.0,3.1,90,0.11,,,0.24,WUHU216HW,2015-04-25 09:35:00,
2015-04-25 02:40:00,56.5,53.6,29.90,WSW,248,1.3,3.1,90,0.10,,,0.24,WUHU216HW,2015-04-25 09:40:00,
2015-04-25 02:45:00,56.3,53.5,29.90,WSW,248,1.6,2.5,90,0.10,,,0.26,WUHU216HW,2015-04-25 09:45:00,
2015-04-25 02:50:00,56.3,53.5,29.90,WSW,248,1.3,2.5,90,0.09,,,0.26,WUHU216HW,2015-04-25 09:50:00,
2015-04-25 02:55:00,56.2,53.3,29.90,WSW,248,1.1,1.6,90,0.09,,,0.26,WUHU216HW,2015-04-25 09:55:00,
2015-04-25 03:00:00,56.2,53.3,29.90,WSW,248,1.6,1.6,90,0.09,,,0.27,WUHU216HW,2015-04-25 10:00:00,
2015-04-25 03:05:00,56.2,53.6,29.90,WSW,248,1.1,2.5,91,0.08,,,0.27,WUHU216HW,2015-04-25 10:05:00,
2015-04-25 03:10:00,56.2,53.6,29.90,West,270,0.2,2.7,91,0.06,,,0.27,WUHU216HW,2015-04-25 10:10:00,
2015-04-25 03:15:00,56.0,53.4,29.89,West,270,0.9,2.7,91,0.06,,,0.28,WUHU216HW,2015-04-25 10:15:00,
2015-04-25 03:20:00,56.0,53.4,29.89,NNW,338,0.0,1.6,91,0.05,,,0.28,WUHU216HW,2015-04-25 10:20:00,
2015-04-25 03:25:00,56.0,53.4,29.90,West,270,0.7,2.2,91,0.04,,,0.28,WUHU216HW,2015-04-25 10:25:00,
2015-04-25 03:30:00,56.0,53.4,29.89,West,270,1.1,2.2,91,0.05,,,0.29,WUHU216HW,2015-04-25 10:30:00,
2015-04-25 03:35:00,56.0,53.4,29.89,West,270,0.7,1.8,91,0.04,,,0.29,WUHU216HW,2015-04-25 10:35:00,
2015-04-25 03:40:00,56.0,53.4,29.90,West,270,0.9,1.8,91,0.04,,,0.29,WUHU216HW,2015-04-25 10:40:00,
2015-04-25 03:45:00,56.0,53.4,29.90,WNW,293,0.2,1.3,91,0.04,,,0.30,WUHU216HW,2015-04-25 10:45:00,
2015-04-25 03:50:00,56.0,53.4,29.90,WSW,248,0.4,0.9,91,0.04,,,0.30,WUHU216HW,2015-04-25 10:50:00,
2015-04-25 03:55:00,56.0,53.4,29.89,WSW,248,0.0,0.9,91,0.04,,,0.30,WUHU216HW,2015-04-25 10:55:00,
2015-04-25 04:00:00,56.0,53.4,29.90,WSW,248,0.0,0.9,91,0.03,,,0.30,WUHU216HW,2015-04-25 11:00:00,
2015-04-25 04:05:00,56.0,53.4,29.90,WSW,248,0.4,0.9,91,0.03,,,0.30,WUHU216HW,2015-04-25 11:05:00,
2015-04-25 04:10:00,55.8,53.2,29.90,West,270,1.1,1.3,91,0.03,,,0.30,WUHU216HW,2015-04-25 11:10:00,
2015-04-25 04:15:00,55.8,53.2,29.90,NW,315,1.1,1.3,91,0.02,,,0.30,WUHU216HW,2015-04-25 11:15:00,
2015-04-25 04:20:00,55.8,53.2,29.90,West,270,0.0,2.2,91,0.02,,,0.30,WUHU216HW,2015-04-25 11:20:00,
2015-04-25 04:25:00,55.6,53.0,29.90,WNW,293,0.7,2.2,91,0.01,,,0.30,WUHU216HW,2015-04-25 11:25:00,
2015-04-25 04:30:00,55.6,53.0,29.90,NW,315,1.1,1.6,91,0.01,,,0.30,WUHU216HW,2015-04-25 11:30:00,
2015-04-25 04:35:00,55.4,52.8,29.90,West,270,1.1,1.6,91,0.01,,,0.30,WUHU216HW,2015-04-25 11:35:00,
2015-04-25 04:40:00,55.4,52.8,29.90,WSW,248,1.6,2.5,91,0.01,,,0.30,WUHU216HW,2015-04-25 11:40:00,
2015-04-25 04:45:00,55.3,52.7,29.90,West,270,0.4,2.5,91,0.00,,,0.30,WUHU216HW,2015-04-25 11:45:00,
2015-04-25 04:50:00,55.3,52.7,29.90,WSW,248,0.9,2.0,91,0.00,,,0.30,WUHU216HW,2015-04-25 11:50:00,
2015-04-25 04:55:00,55.1,52.5,29.90,WNW,293,0.4,2.0,91,0.00,,,0.30,WUHU216HW,2015-04-25 11:55:00,
2015-04-25 05:00:00,55.1,52.5,29.90,NW,315,1.6,2.7,91,0.00,,,0.30,WUHU216HW,2015-04-25 12:00:00,
2015-04-25 05:05:00,54.7,52.1,29.90,WNW,293,1.1,3.1,91,0.00,,,0.30,WUHU216HW,2015-04-25 12:05:00,
2015-04-25 05:10:00,54.5,51.9,29.91,NW,315,0.7,3.1,91,0.00,,,0.30,WUHU216HW,2015-04-25 12:10:00,
2015-04-25 05:15:00,54.4,51.8,29.91,WNW,293,0.4,2.2,91,0.00,,,0.30,WUHU216HW,2015-04-25 12:15:00,
2015-04-25 05:20:00,54.4,51.8,29.91,NW,315,0.4,1.1,91,0.00,,,0.30,WUHU216HW,2015-04-25 12:20:00,
2015-04-25 05:25:00,54.4,51.8,29.91,WNW,293,0.4,1.3,91,0.00,,,0.30,WUHU216HW,2015-04-25 12:25:00,
2015-04-25 05:30:00,54.4,51.8,29.91,West,270,0.4,1.3,91,0.00,,,0.30,WUHU216HW,2015-04-25 12:30:00,
2015-04-25 05:35:00,54.4,51.5,29.92,West,270,0.0,1.1,90,0.00,,,0.30,WUHU216HW,2015-04-25 12:35:00,
2015-04-25 05:40:00,54.2,51.3,29.92,West,270,1.1,1.1,90,0.00,,,0.30,WUHU216HW,2015-04-25 12:40:00,
2015-04-25 05:45:00,54.2,51.3,29.92,West,270,0.2,1.1,90,0.00,,,0.30,WUHU216HW,2015-04-25 12:45:00,
2015-04-25 05:50:00,54.2,51.3,29.92,WNW,293,0.4,1.1,90,0.00,,,0.30,WUHU216HW,2015-04-25 12:50:00,
2015-04-25 05:55:00,54.0,51.1,29.92,West,270,0.2,1.1,90,0.00,,,0.30,WUHU216HW,2015-04-25 12:55:00,
2015-04-25 06:00:00,54.0,51.1,29.92,West,270,0.7,0.9,90,0.00,,,0.30,WUHU216HW,2015-04-25 13:00:00,
2015-04-25 06:05:00,54.0,51.1,29.92,West,270,0.4,1.6,90,0.00,,,0.30,WUHU216HW,2015-04-25 13:05:00,
2015-04-25 06:10:00,54.0,51.1,29.92,West,270,0.4,1.6,90,0.00,,,0.30,WUHU216HW,2015-04-25 13:10:00,
2015-04-25 06:15:00,53.8,50.9,29.92,NW,315,0.4,1.3,90,0.00,,,0.30,WUHU216HW,2015-04-25 13:15:00,
2015-04-25 06:20:00,53.8,50.7,29.92,West,270,0.7,1.6,89,0.00,,,0.30,WUHU216HW,2015-04-25 13:20:00,
2015-04-25 06:25:00,53.8,50.7,29.92,WNW,293,0.7,1.6,89,0.00,,,0.30,WUHU216HW,2015-04-25 13:25:00,
2015-04-25 06:30:00,53.8,50.7,29.92,WNW,293,0.2,1.1,89,0.00,,,0.30,WUHU216HW,2015-04-25 13:30:00,
2015-04-25 06:35:00,53.8,50.7,29.92,WNW,293,1.1,2.0,89,0.00,,,0.30,WUHU216HW,2015-04-25 13:35:00,
2015-04-25 06:40:00,53.6,50.5,29.92,WNW,293,0.2,2.0,89,0.00,,,0.30,WUHU216HW,2015-04-25 13:40:00,
2015-04-25 06:45:00,53.6,50.5,29.92,West,270,1.1,1.6,89,0.00,,,0.30,WUHU216HW,2015-04-25 13:45:00,
2015-04-25 06:50:00,53.6,50.5,29.93,West,270,0.9,1.1,89,0.00,,,0.30,WUHU216HW,2015-04-25 13:50:00,
2015-04-25 06:55:00,53.6,50.5,29.93,WNW,293,0.7,1.1,89,0.00,,,0.30,WUHU216HW,2015-04-25 13:55:00,
2015-04-25 07:00:00,53.6,50.5,29.93,West,270,0.9,1.1,89,0.00,,,0.30,WUHU216HW,2015-04-25 14:00:00,
2015-04-25 07:05:00,53.6,50.5,29.93,WNW,293,0.7,1.1,89,0.00,,,0.30,WUHU216HW,2015-04-25 14:05:00,
2015-04-25 07:10:00,53.6,50.5,29.93,West,270,0.9,1.1,89,0.00,,,0.30,WUHU216HW,2015-04-25 14:10:00,
2015-04-25 07:15:00,53.6,50.5,29.93,WNW,293,1.1,2.0,89,0.00,,,0.30,WUHU216HW,2015-04-25 14:15:00,
2015-04-25 07:20:00,53.6,50.5,29.93,West,270,0.4,2.0,89,0.00,,,0.30,WUHU216HW,2015-04-25 14:20:00,
2015-04-25 07:25:00,53.6,50.5,29.93,West,270,0.0,1.8,89,0.00,,,0.30,WUHU216HW,2015-04-25 14:25:00,
2015-04-25 07:30:00,53.6,50.5,29.93,West,270,0.2,1.3,89,0.00,,,0.30,WUHU216HW,2015-04-25 14:30:00,
2015-04-25 07:35:00,53.6,50.5,29.93,West,270,0.4,2.2,89,0.00,,,0.30,WUHU216HW,2015-04-25 14:35:00,
2015-04-25 07:40:00,53.6,50.5,29.93,WNW,293,0.7,2.2,89,0.00,,,0.30,WUHU216HW,2015-04-25 14:40:00,
2015-04-25 07:45:00,53.6,50.5,29.93,WNW,293,0.0,0.9,89,0.00,,,0.30,WUHU216HW,2015-04-25 14:45:00,
2015-04-25 07:50:00,53.6,50.5,29.93,WNW,293,0.7,0.9,89,0.00,,,0.30,WUHU216HW,2015-04-25 14:50:00,
2015-04-25 07:55:00,53.8,50.7,29.94,WNW,293,0.4,0.9,89,0.00,,,0.30,WUHU216HW,2015-04-25 14:55:00,
2015-04-25 08:00:00,54.0,50.9,29.94,West,270,0.7,1.6,89,0.00,,,0.30,WUHU216HW,2015-04-25 15:00:00,
2015-04-25 08:05:00,54.2,51.0,29.94,West,270,0.4,1.6,89,0.00,,,0.30,WUHU216HW,2015-04-25 15:05:00,
2015-04-25 08:10:00,54.4,50.9,29.94,WNW,293,0.4,1.3,88,0.00,,,0.30,WUHU216HW,2015-04-25 15:10:00,
2015-04-25 08:15:00,54.4,50.9,29.94,West,270,1.3,1.3,88,0.00,,,0.30,WUHU216HW,2015-04-25 15:15:00,
2015-04-25 08:20:00,54.5,51.0,29.94,WNW,293,1.8,1.8,88,0.00,,,0.30,WUHU216HW,2015-04-25 15:20:00,
2015-04-25 08:25:00,54.9,51.4,29.94,WSW,248,1.8,2.2,88,0.00,,,0.30,WUHU216HW,2015-04-25 15:25:00,
2015-04-25 08:30:00,54.7,51.2,29.95,NW,315,1.3,2.5,88,0.00,,,0.30,WUHU216HW,2015-04-25 15:30:00,
2015-04-25 08:35:00,54.4,50.6,29.95,West,270,1.6,2.5,87,0.00,,,0.30,WUHU216HW,2015-04-25 15:35:00,
2015-04-25 08:45:00,54.0,50.2,29.95,WNW,293,0.7,2.2,87,0.00,,,0.30,WUHU216HW,2015-04-25 15:45:00,
2015-04-25 08:50:00,54.0,50.2,29.95,West,270,1.1,1.8,87,0.00,,,0.30,WUHU216HW,2015-04-25 15:50:00,
2015-04-25 08:55:00,53.8,50.1,29.95,WNW,293,1.8,1.8,87,0.00,,,0.30,WUHU216HW,2015-04-25 15:55:00,
2015-04-25 09:00:00,53.6,49.9,29.95,NNW,338,1.3,2.5,87,0.00,,,0.30,WUHU216HW,2015-04-25 16:00:00,
2015-04-25 09:05:00,53.6,49.9,29.95,NW,315,1.8,2.5,87,0.00,,,0.30,WUHU216HW,2015-04-25 16:05:00,
2015-04-25 09:10:00,53.5,50.0,29.95,NW,315,1.8,4.0,88,0.00,,,0.30,WUHU216HW,2015-04-25 16:10:00,
2015-04-25 09:15:00,53.3,49.5,29.95,WNW,293,1.6,4.0,87,0.00,,,0.30,WUHU216HW,2015-04-25 16:15:00,
2015-04-25 09:20:00,53.3,49.5,29.96,WSW,248,1.8,2.7,87,0.00,,,0.30,WUHU216HW,2015-04-25 16:20:00,
2015-04-25 09:25:00,53.3,49.5,29.96,West,270,1.8,2.7,87,0.00,,,0.30,WUHU216HW,2015-04-25 16:25:00,
2015-04-25 09:30:00,53.5,49.7,29.96,WSW,248,1.8,2.5,87,0.00,,,0.30,WUHU216HW,2015-04-25 16:30:00,
2015-04-25 09:35:00,53.5,49.3,29.96,WSW,248,1.6,3.4,86,0.00,,,0.30,WUHU216HW,2015-04-25 16:35:00,
2015-04-25 09:40:00,53.3,49.1,29.97,WSW,248,2.5,3.4,86,0.00,,,0.30,WUHU216HW,2015-04-25 16:40:00,
2015-04-25 09:45:00,53.5,49.3,29.97,West,270,2.0,2.9,86,0.00,,,0.30,WUHU216HW,2015-04-25 16:45:00,
2015-04-25 09:50:00,53.6,49.5,29.97,NW,315,1.1,2.9,86,0.00,,,0.30,WUHU216HW,2015-04-25 16:50:00,
2015-04-25 09:55:00,53.6,49.5,29.97,WNW,293,1.3,2.7,86,0.00,,,0.30,WUHU216HW,2015-04-25 16:55:00,
2015-04-25 10:00:00,53.8,49.4,29.97,West,270,1.1,3.4,85,0.00,,,0.30,WUHU216HW,2015-04-25 17:00:00,
2015-04-25 10:05:00,54.0,49.9,29.97,West,270,1.6,3.4,86,0.00,,,0.30,WUHU216HW,2015-04-25 17:05:00,
2015-04-25 10:10:00,54.2,49.8,29.97,West,270,1.6,2.9,85,0.00,,,0.30,WUHU216HW,2015-04-25 17:10:00,
2015-04-25 10:15:00,54.2,49.8,29.97,NW,315,1.3,2.5,85,0.00,,,0.30,WUHU216HW,2015-04-25 17:15:00,
2015-04-25 10:20:00,54.4,49.6,29.98,WSW,248,1.1,2.5,84,0.00,,,0.30,WUHU216HW,2015-04-25 17:20:00,
2015-04-25 10:25:00,54.4,49.3,29.98,WNW,293,3.4,3.4,83,0.00,,,0.30,WUHU216HW,2015-04-25 17:25:00,
2015-04-25 10:30:00,54.7,49.6,29.98,WSW,248,1.8,3.4,83,0.00,,,0.30,WUHU216HW,2015-04-25 17:30:00,
2015-04-25 10:35:00,54.7,49.6,29.98,WSW,248,2.7,3.4,83,0.00,,,0.30,WUHU216HW,2015-04-25 17:35:00,
2015-04-25 10:40:00,54.7,49.3,29.98,NW,315,1.8,3.1,82,0.00,,,0.30,WUHU216HW,2015-04-25 17:40:00,
2015-04-25 10:45:00,55.1,49.7,29.98,West,270,1.1,3.1,82,0.00,,,0.30,WUHU216HW,2015-04-25 17:45:00,
2015-04-25 10:50:00,55.3,50.1,29.98,West,270,2.2,2.2,83,0.00,,,0.30,WUHU216HW,2015-04-25 17:50:00,
2015-04-25 10:55:00,55.4,50.0,29.98,WSW,248,0.4,2.5,82,0.00,,,0.30,WUHU216HW,2015-04-25 17:55:00,
2015-04-25 11:00:00,55.8,50.1,29.99,NW,315,1.8,3.6,81,0.00,,,0.30,WUHU216HW,2015-04-25 18:00:00,
2015-04-25 11:05:00,55.8,50.1,29.99,NW,315,1.1,3.6,81,0.00,,,0.30,WUHU216HW,2015-04-25 18:05:00,
2015-04-25 11:10:00,56.0,50.5,29.99,West,270,1.1,3.1,82,0.00,,,0.30,WUHU216HW,2015-04-25 18:10:00,
2015-04-25 11:15:00,56.0,50.5,29.99,West,270,2.5,3.4,82,0.00,,,0.30,WUHU216HW,2015-04-25 18:15:00,
2015-04-25 11:20:00,56.2,50.4,29.98,West,270,1.6,3.4,81,0.00,,,0.30,WUHU216HW,2015-04-25 18:20:00,
2015-04-25 11:25:00,56.5,50.8,29.99,West,270,2.5,3.1,81,0.00,,,0.30,WUHU216HW,2015-04-25 18:25:00,
2015-04-25 11:30:00,56.5,50.8,29.99,WNW,293,1.8,3.1,81,0.00,,,0.30,WUHU216HW,2015-04-25 18:30:00,
2015-04-25 11:35:00,56.7,50.6,30.00,WSW,248,2.5,2.5,80,0.00,,,0.30,WUHU216HW,2015-04-25 18:35:00,
2015-04-25 11:40:00,56.7,49.9,29.99,West,270,1.8,2.9,78,0.00,,,0.30,WUHU216HW,2015-04-25 18:40:00,
2015-04-25 11:45:00,56.7,49.9,29.99,WNW,293,0.7,2.9,78,0.00,,,0.30,WUHU216HW,2015-04-25 18:45:00,
2015-04-25 11:50:00,57.1,50.2,30.00,WSW,248,1.8,3.4,78,0.00,,,0.30,WUHU216HW,2015-04-25 18:50:00,
2015-04-25 11:55:00,57.2,49.7,30.00,WSW,248,2.7,3.4,76,0.00,,,0.30,WUHU216HW,2015-04-25 18:55:00,
2015-04-25 12:00:00,57.6,49.7,29.99,NW,315,1.8,3.1,75,0.00,,,0.30,WUHU216HW,2015-04-25 19:00:00,
2015-04-25 12:05:00,57.8,49.9,30.00,West,270,1.6,2.9,75,0.00,,,0.30,WUHU216HW,2015-04-25 19:05:00,
2015-04-25 12:10:00,58.0,49.3,30.00,West,270,1.6,3.6,73,0.00,,,0.30,WUHU216HW,2015-04-25 19:10:00,
2015-04-25 12:15:00,58.1,49.5,29.99,NW,315,2.9,3.6,73,0.00,,,0.30,WUHU216HW,2015-04-25 19:15:00,
2015-04-25 12:20:00,58.3,50.0,29.99,WNW,293,0.4,3.4,74,0.00,,,0.30,WUHU216HW,2015-04-25 19:20:00,
2015-04-25 12:25:00,58.7,50.0,29.99,West,270,1.8,2.9,73,0.00,,,0.30,WUHU216HW,2015-04-25 19:25:00,
2015-04-25 12:30:00,58.9,49.5,29.99,WSW,248,2.5,3.4,71,0.00,,,0.30,WUHU216HW,2015-04-25 19:30:00,
2015-04-25 12:35:00,58.9,49.5,29.98,West,270,1.6,3.4,71,0.00,,,0.30,WUHU216HW,2015-04-25 19:35:00,
2015-04-25 12:40:00,59.0,49.7,29.98,WNW,293,2.9,3.4,71,0.00,,,0.30,WUHU216HW,2015-04-25 19:40:00,
2015-04-25 12:44:00,59.0,48.9,29.98,NW,315,0.9,3.4,69,0.00,,,0.30,WUHU216HW,2015-04-25 19:44:00,
2015-04-25 12:50:00,59.2,49.1,29.99,West,270,1.8,3.4,69,0.00,,,0.30,WUHU216HW,2015-04-25 19:50:00,
2015-04-25 12:55:00,59.0,48.9,29.99,West,270,1.1,2.9,69,0.00,,,0.30,WUHU216HW,2015-04-25 19:55:00,
2015-04-25 12:59:00,59.0,48.9,29.99,NW,315,0.7,2.5,69,0.00,,,0.30,WUHU216HW,2015-04-25 19:59:00,
2015-04-25 13:04:00,59.0,48.5,29.99,WSW,248,1.6,3.4,68,0.00,,,0.30,WUHU216HW,2015-04-25 20:04:00,
2015-04-25 13:09:00,59.4,49.2,29.99,WSW,248,1.1,3.4,69,0.00,,,0.30,WUHU216HW,2015-04-25 20:09:00,
2015-04-25 13:14:00,59.6,48.6,29.99,WSW,248,1.8,2.5,67,0.00,,,0.30,WUHU216HW,2015-04-25 20:14:00,
2015-04-25 13:19:00,59.4,48.1,29.99,WSW,248,3.4,3.4,66,0.00,,,0.30,WUHU216HW,2015-04-25 20:19:00,
2015-04-25 13:25:00,59.4,48.4,29.99,WNW,293,1.1,3.4,67,0.00,,,0.30,WUHU216HW,2015-04-25 20:25:00,
2015-04-25 13:29:00,59.4,48.4,30.00,WSW,248,2.0,3.4,67,0.00,,,0.30,WUHU216HW,2015-04-25 20:29:00,
2015-04-25 13:34:00,59.8,48.8,29.99,West,270,2.5,2.5,67,0.00,,,0.30,WUHU216HW,2015-04-25 20:34:00,
2015-04-25 13:39:00,59.9,48.2,29.99,WSW,248,2.0,3.4,65,0.00,,,0.30,WUHU216HW,2015-04-25 20:39:00,
2015-04-25 13:40:00,59.9,48.2,29.99,West,270,1.6,3.4,65,0.00,,,0.30,WUHU216HW,2015-04-25 20:40:00,
2015-04-25 13:45:00,59.8,47.5,29.99,West,270,2.2,4.3,64,0.00,,,0.30,WUHU216HW,2015-04-25 20:45:00,
2015-04-25 13:50:00,59.6,47.3,30.00,NNW,338,1.8,4.3,64,0.00,,,0.30,WUHU216HW,2015-04-25 20:50:00,
2015-04-25 13:55:00,59.8,48.4,29.99,West,270,2.7,3.4,66,0.00,,,0.30,WUHU216HW,2015-04-25 20:55:00,
2015-04-25 14:00:00,59.9,48.2,30.00,West,270,2.2,3.4,65,0.00,,,0.30,WUHU216HW,2015-04-25 21:00:00,
2015-04-25 14:05:00,60.3,48.5,30.00,WSW,248,2.5,3.4,65,0.00,,,0.30,WUHU216HW,2015-04-25 21:05:00,
2015-04-25 14:10:00,60.5,48.7,30.00,West,270,2.9,3.4,65,0.00,,,0.30,WUHU216HW,2015-04-25 21:10:00,
2015-04-25 14:15:00,60.1,48.3,30.00,WSW,248,3.1,4.3,65,0.00,,,0.30,WUHU216HW,2015-04-25 21:15:00,
2015-04-25 14:20:00,60.1,48.3,30.00,West,270,0.7,4.3,65,0.00,,,0.30,WUHU216HW,2015-04-25 21:20:00,
2015-04-25 14:25:00,60.3,48.5,30.00,West,270,2.5,4.0,65,0.00,,,0.30,WUHU216HW,2015-04-25 21:25:00,
2015-04-25 14:30:00,60.5,48.2,30.00,NNW,338,2.2,3.6,64,0.00,,,0.30,WUHU216HW,2015-04-25 21:30:00,
2015-04-25 14:35:00,60.5,48.2,30.00,West,270,1.3,3.6,64,0.00,,,0.30,WUHU216HW,2015-04-25 21:35:00,
2015-04-25 14:40:00,60.8,48.3,30.00,NW,315,1.1,3.4,63,0.00,,,0.30,WUHU216HW,2015-04-25 21:40:00,
2015-04-25 14:45:00,60.7,47.6,30.00,West,270,3.4,4.3,62,0.00,,,0.30,WUHU216HW,2015-04-25 21:45:00,
2015-04-25 14:50:00,60.5,48.2,30.00,West,270,1.6,4.3,64,0.00,,,0.30,WUHU216HW,2015-04-25 21:50:00,
2015-04-25 14:55:00,60.8,47.8,30.00,WSW,248,2.2,3.6,62,0.00,,,0.30,WUHU216HW,2015-04-25 21:55:00,
2015-04-25 15:00:00,61.2,48.5,30.00,WNW,293,0.9,3.6,63,0.00,,,0.30,WUHU216HW,2015-04-25 22:00:00,
2015-04-25 15:05:00,61.6,48.4,30.00,WSW,248,1.6,3.1,62,0.00,,,0.30,WUHU216HW,2015-04-25 22:05:00,
2015-04-25 15:10:00,61.9,48.0,29.99,WSW,248,1.6,2.9,60,0.00,,,0.30,WUHU216HW,2015-04-25 22:10:00,
2015-04-25 15:15:00,61.6,47.2,29.99,WNW,293,1.6,3.6,59,0.00,,,0.30,WUHU216HW,2015-04-25 22:15:00,
2015-04-25 15:20:00,61.6,47.2,29.99,WSW,248,2.7,3.6,59,0.00,,,0.30,WUHU216HW,2015-04-25 22:20:00,
2015-04-25 15:25:00,61.6,47.6,29.99,WNW,293,2.2,3.1,60,0.00,,,0.30,WUHU216HW,2015-04-25 22:25:00,
2015-04-25 15:30:00,61.7,47.4,29.99,West,270,3.1,3.4,59,0.00,,,0.30,WUHU216HW,2015-04-25 22:30:00,
2015-04-25 15:35:00,61.6,48.1,29.99,WSW,248,0.9,4.5,61,0.00,,,0.30,WUHU216HW,2015-04-25 22:35:00,
2015-04-25 15:40:00,61.7,47.8,29.99,NW,315,2.2,4.5,60,0.00,,,0.30,WUHU216HW,2015-04-25 22:40:00,
2015-04-25 15:45:00,61.6,47.6,29.99,West,270,0.7,4.0,60,0.00,,,0.30,WUHU216HW,2015-04-25 22:45:00,
2015-04-25 15:50:00,61.7,48.3,29.99,WSW,248,2.0,4.0,61,0.00,,,0.30,WUHU216HW,2015-04-25 22:50:00,
2015-04-25 15:55:00,61.7,47.4,29.99,West,270,2.9,4.0,59,0.00,,,0.30,WUHU216HW,2015-04-25 22:55:00,
2015-04-25 16:00:00,61.9,48.0,29.99,NW,315,1.3,4.3,60,0.00,,,0.30,WUHU216HW,2015-04-25 23:00:00,
2015-04-25 16:05:00,61.6,47.2,30.00,NW,315,1.8,4.3,59,0.00,,,0.30,WUHU216HW,2015-04-25 23:05:00,
2015-04-25 16:10:00,61.4,47.0,30.00,SSW,203,1.1,3.8,59,0.00,,,0.30,WUHU216HW,2015-04-25 23:10:00,
2015-04-25 16:20:00,61.6,46.6,30.00,WSW,248,2.0,3.8,58,0.00,,,0.30,WUHU216HW,2015-04-25 23:20:00,
2015-04-25 16:25:00,60.8,46.5,30.00,NW,315,1.8,4.7,59,0.00,,,0.30,WUHU216HW,2015-04-25 23:25:00,
2015-04-25 16:30:00,60.5,46.6,30.00,WSW,248,3.6,4.7,60,0.00,,,0.30,WUHU216HW,2015-04-25 23:30:00,
2015-04-25 16:35:00,60.1,46.7,30.00,West,270,1.8,3.6,61,0.00,,,0.30,WUHU216HW,2015-04-25 23:35:00,
2015-04-25 16:40:00,60.1,46.7,30.00,WSW,248,1.8,3.6,61,0.00,,,0.30,WUHU216HW,2015-04-25 23:40:00,
2015-04-25 16:45:00,59.9,46.9,30.00,West,270,1.8,3.4,62,0.01,,,0.31,WUHU216HW,2015-04-25 23:45:00,
2015-04-25 16:50:00,59.6,46.2,30.01,West,270,3.4,4.0,61,0.01,,,0.31,WUHU216HW,2015-04-25 23:50:00,
2015-04-25 16:55:00,59.0,46.0,30.00,East,90,2.0,4.0,62,0.01,,,0.31,WUHU216HW,2015-04-25 23:55:00,
2015-04-25 17:00:00,59.0,46.5,30.00,WNW,293,3.1,4.0,63,0.01,,,0.31,WUHU216HW,2015-04-26 00:00:00,
2015-04-25 17:05:00,59.0,46.0,30.00,WSW,248,3.4,4.0,62,0.01,,,0.31,WUHU216HW,2015-04-26 00:05:00,
2015-04-25 17:10:00,58.7,46.1,30.00,West,270,1.8,4.0,63,0.01,,,0.31,WUHU216HW,2015-04-26 00:10:00,
2015-04-25 17:15:00,59.0,46.5,30.00,West,270,2.5,3.8,63,0.01,,,0.31,WUHU216HW,2015-04-26 00:15:00,
2015-04-25 17:20:00,59.0,46.5,30.01,WNW,293,2.5,3.6,63,0.01,,,0.31,WUHU216HW,2015-04-26 00:20:00,
2015-04-25 17:25:00,59.0,46.5,30.01,WSW,248,0.7,3.6,63,0.01,,,0.31,WUHU216HW,2015-04-26 00:25:00,
2015-04-25 17:30:00,59.0,46.5,30.01,WSW,248,2.7,2.7,63,0.01,,,0.31,WUHU216HW,2015-04-26 00:30:00,
2015-04-25 17:35:00,58.7,46.1,30.01,WSW,248,1.6,3.8,63,0.01,,,0.31,WUHU216HW,2015-04-26 00:35:00,
2015-04-25 17:40:00,58.7,46.5,30.01,WSW,248,1.8,3.8,64,0.00,,,0.31,WUHU216HW,2015-04-26 00:40:00,
2015-04-25 17:45:00,58.7,46.1,30.02,WNW,293,3.6,3.6,63,0.00,,,0.31,WUHU216HW,2015-04-26 00:45:00,
2015-04-25 17:50:00,58.5,45.9,30.01,NW,315,1.3,3.6,63,0.00,,,0.31,WUHU216HW,2015-04-26 00:50:00,
2015-04-25 17:55:00,58.3,46.2,30.01,WSW,248,1.3,3.6,64,0.00,,,0.31,WUHU216HW,2015-04-26 00:55:00,
2015-04-25 18:00:00,58.3,46.2,30.01,West,270,0.4,2.0,64,0.00,,,0.31,WUHU216HW,2015-04-26 01:00:00,
2015-04-25 18:05:00,58.3,46.2,30.02,West,270,0.7,2.2,64,0.00,,,0.31,WUHU216HW,2015-04-26 01:05:00,
2015-04-25 18:10:00,58.3,46.2,30.01,West,270,1.1,2.2,64,0.00,,,0.31,WUHU216HW,2015-04-26 01:10:00,
2015-04-25 18:15:00,58.3,46.2,30.01,West,270,1.3,1.8,64,0.00,,,0.31,WUHU216HW,2015-04-26 01:15:00,
2015-04-25 18:20:00,58.0,45.5,30.01,NW,315,1.8,1.8,63,0.00,,,0.31,WUHU216HW,2015-04-26 01:20:00,
2015-04-25 18:25:00,58.0,45.5,30.01,SW,225,2.5,2.5,63,0.00,,,0.31,WUHU216HW,2015-04-26 01:25:00,
2015-04-25 18:30:00,58.0,45.5,30.01,WSW,248,1.6,2.5,63,0.00,,,0.31,WUHU216HW,2015-04-26 01:30:00,
2015-04-25 18:35:00,57.8,45.3,30.01,West,270,1.1,2.5,63,0.00,,,0.31,WUHU216HW,2015-04-26 01:35:00,
2015-04-25 18:40:00,57.8,45.6,30.01,West,270,0.4,2.2,64,0.00,,,0.31,WUHU216HW,2015-04-26 01:40:00,
2015-04-25 18:45:00,57.6,45.5,30.01,WSW,248,1.3,1.6,64,0.00,,,0.31,WUHU216HW,2015-04-26 01:45:00,
2015-04-25 18:50:00,57.2,44.7,30.01,West,270,0.4,4.7,63,0.00,,,0.31,WUHU216HW,2015-04-26 01:50:00,
2015-04-25 18:55:00,56.9,44.8,30.01,WNW,293,1.8,5.8,64,0.00,,,0.31,WUHU216HW,2015-04-26 01:55:00,
2015-04-25 19:00:00,56.5,44.5,30.01,SW,225,1.8,5.8,64,0.00,,,0.31,WUHU216HW,2015-04-26 02:00:00,
2015-04-25 19:05:00,56.3,44.7,30.01,NW,315,0.7,2.5,65,0.00,,,0.31,WUHU216HW,2015-04-26 02:05:00,
2015-04-25 19:10:00,56.2,44.1,30.02,WSW,248,1.8,5.1,64,0.00,,,0.31,WUHU216HW,2015-04-26 02:10:00,
2015-04-25 19:15:00,55.8,44.2,30.01,WSW,248,0.7,5.1,65,0.00,,,0.31,WUHU216HW,2015-04-26 02:15:00,
2015-04-25 19:20:00,55.8,44.2,30.02,West,270,1.8,4.5,65,0.00,,,0.31,WUHU216HW,2015-04-26 02:20:00,
2015-04-25 19:25:00,55.8,44.2,30.02,NNW,338,0.9,4.5,65,0.00,,,0.31,WUHU216HW,2015-04-26 02:25:00,
2015-04-25 19:30:00,55.4,44.3,30.03,West,270,0.4,2.0,66,0.00,,,0.31,WUHU216HW,2015-04-26 02:30:00,
2015-04-25 19:35:00,55.4,44.3,30.02,WSW,248,1.8,2.0,66,0.00,,,0.31,WUHU216HW,2015-04-26 02:35:00,
2015-04-25 19:40:00,55.3,44.1,30.02,West,270,0.4,3.1,66,0.00,,,0.31,WUHU216HW,2015-04-26 02:40:00,
2015-04-25 19:45:00,55.3,44.1,30.03,West,270,1.1,3.1,66,0.00,,,0.31,WUHU216HW,2015-04-26 02:45:00,
2015-04-25 19:50:00,55.1,43.9,30.03,NNW,338,0.2,2.2,66,0.00,,,0.31,WUHU216HW,2015-04-26 02:50:00,
2015-04-25 19:55:00,55.1,43.9,30.03,WNW,293,0.4,2.2,66,0.00,,,0.31,WUHU216HW,2015-04-26 02:55:00,
2015-04-25 20:00:00,54.9,43.8,30.03,NE,45,2.7,3.4,66,0.00,,,0.31,WUHU216HW,2015-04-26 03:00:00,
2015-04-25 20:05:00,54.9,43.8,30.03,West,270,1.8,3.4,66,0.00,,,0.31,WUHU216HW,2015-04-26 03:05:00,
2015-04-25 20:10:00,54.7,43.6,30.03,WNW,293,0.9,3.4,66,0.00,,,0.31,WUHU216HW,2015-04-26 03:10:00,
2015-04-25 20:15:00,54.7,43.6,30.03,West,270,0.4,2.2,66,0.00,,,0.31,WUHU216HW,2015-04-26 03:15:00,
2015-04-25 20:20:00,54.7,43.9,30.04,SE,135,1.8,1.8,67,0.00,,,0.31,WUHU216HW,2015-04-26 03:20:00,
2015-04-25 20:25:00,54.5,43.8,30.04,WNW,293,0.4,2.2,67,0.00,,,0.31,WUHU216HW,2015-04-26 03:25:00,
2015-04-25 20:30:00,54.5,43.8,30.05,NW,315,0.9,2.2,67,0.00,,,0.31,WUHU216HW,2015-04-26 03:30:00,
2015-04-25 20:34:00,54.5,43.8,30.05,NNW,338,0.2,1.8,67,0.00,,,0.31,WUHU216HW,2015-04-26 03:34:00,
2015-04-25 20:39:00,54.4,43.7,30.05,WNW,293,0.7,1.6,67,0.00,,,0.31,WUHU216HW,2015-04-26 03:39:00,